createdAt,value
2018-08-25T00:00:38.241Z,79.11
2018-08-25T00:03:07.270Z,79.11
2018-08-25T00:05:36.307Z,79.24
2018-08-25T00:08:05.334Z,79.14
2018-08-25T00:10:34.415Z,78.79
2018-08-25T00:13:04.042Z,79.25
2018-08-25T00:15:33.760Z,78.68
2018-08-25T00:18:02.935Z,79.28
2018-08-25T00:20:31.916Z,78.96
2018-08-25T00:23:00.998Z,78.69
2018-08-25T00:25:31.161Z,79.00
2018-08-25T00:28:00.340Z,79.46
2018-08-25T00:30:34.736Z,79.36
2018-08-25T00:33:04.712Z,79.01
2018-08-25T00:35:33.617Z,78.86
2018-08-25T00:38:02.589Z,79.26
2018-08-25T00:40:31.624Z,78.76
2018-08-25T00:43:00.673Z,78.83
2018-08-25T00:45:30.042Z,79.34
2018-08-25T00:47:59.069Z,78.49
2018-08-25T00:50:28.837Z,78.57
2018-08-25T00:52:58.236Z,79.00
2018-08-25T00:55:27.588Z,79.40
2018-08-25T00:57:56.988Z,79.08
2018-08-25T01:00:26.424Z,78.84
2018-08-25T01:02:55.611Z,79.02
2018-08-25T01:05:24.673Z,79.33
2018-08-25T01:07:54.695Z,78.82
2018-08-25T01:10:23.888Z,78.62
2018-08-25T01:12:52.876Z,78.77
2018-08-25T01:15:22.217Z,78.98
2018-08-25T01:17:51.326Z,78.85
2018-08-25T01:20:20.370Z,78.85
2018-08-25T01:22:49.501Z,78.91
2018-08-25T01:25:18.672Z,78.45
2018-08-25T01:27:47.934Z,79.26
2018-08-25T01:30:17.066Z,79.29
2018-08-25T01:32:46.812Z,79.87
2018-08-25T01:35:15.926Z,79.72
2018-08-25T01:37:45.498Z,80.64
2018-08-25T01:40:14.527Z,80.39
2018-08-25T01:42:43.690Z,80.63
2018-08-25T01:45:12.733Z,80.93
2018-08-25T01:47:42.124Z,81.29
2018-08-25T01:50:11.491Z,81.53
2018-08-25T01:52:40.952Z,81.14
2018-08-25T01:55:10.040Z,81.18
2018-08-25T01:57:39.392Z,81.29
2018-08-25T02:00:08.494Z,81.72
2018-08-25T02:02:37.497Z,81.74
2018-08-25T02:05:08.129Z,81.00
2018-08-25T02:07:37.403Z,81.93
2018-08-25T02:10:07.090Z,81.35
2018-08-25T02:12:36.291Z,81.29
2018-08-25T02:15:05.408Z,81.94
2018-08-25T02:17:35.238Z,81.83
2018-08-25T02:20:04.290Z,82.66
2018-08-25T02:22:33.321Z,82.69
2018-08-25T02:25:02.407Z,83.12
2018-08-25T02:27:31.398Z,82.45
2018-08-25T02:30:00.871Z,82.54
2018-08-25T02:32:30.669Z,81.74
2018-08-25T02:35:00.071Z,82.23
2018-08-25T02:37:29.004Z,81.74
2018-08-25T02:39:58.158Z,81.59
2018-08-25T02:42:27.287Z,81.21
2018-08-25T02:44:56.183Z,81.11
2018-08-25T02:47:31.528Z,81.31
2018-08-25T02:50:00.502Z,80.81
2018-08-25T02:52:30.002Z,81.09
2018-08-25T02:54:59.099Z,80.99
2018-08-25T02:57:28.354Z,80.94
2018-08-25T02:59:57.508Z,80.84
2018-08-25T03:02:27.048Z,81.33
2018-08-25T03:04:56.933Z,81.23
2018-08-25T03:07:26.137Z,80.94
2018-08-25T03:09:55.434Z,80.77
2018-08-25T03:12:24.530Z,81.16
2018-08-25T03:14:53.554Z,80.25
2018-08-25T03:17:23.181Z,80.70
2018-08-25T03:19:52.347Z,80.17
2018-08-25T03:22:23.079Z,79.74
2018-08-25T03:24:52.040Z,79.89
2018-08-25T03:27:22.028Z,80.23
2018-08-25T03:29:51.091Z,80.76
2018-08-25T03:32:20.458Z,80.85
2018-08-25T03:34:49.653Z,80.37
2018-08-25T03:37:18.951Z,80.77
2018-08-25T03:39:48.298Z,80.21
2018-08-25T03:42:17.628Z,80.17
2018-08-25T03:44:47.928Z,80.04
2018-08-25T03:47:17.003Z,80.21
2018-08-25T03:49:45.991Z,80.90
2018-08-25T03:52:15.029Z,81.13
2018-08-25T03:54:44.336Z,81.11
2018-08-25T03:57:14.187Z,81.15
2018-08-25T03:59:43.435Z,80.95
2018-08-25T04:02:12.749Z,81.33
2018-08-25T04:04:41.698Z,81.42
2018-08-25T04:07:11.151Z,80.64
2018-08-25T04:09:40.453Z,81.06
2018-08-25T04:12:09.814Z,80.63
2018-08-25T04:14:39.062Z,81.28
2018-08-25T04:17:08.349Z,80.95
2018-08-25T04:19:37.582Z,81.38
2018-08-25T04:22:06.764Z,80.87
2018-08-25T04:24:36.080Z,81.48
2018-08-25T04:27:05.112Z,81.42
2018-08-25T04:29:34.334Z,80.79
2018-08-25T04:32:03.760Z,81.57
2018-08-25T04:34:33.028Z,80.77
2018-08-25T04:37:02.381Z,81.64
2018-08-25T04:39:31.655Z,80.73
2018-08-25T04:42:00.597Z,80.84
2018-08-25T04:44:30.046Z,80.66
2018-08-25T04:46:59.221Z,80.88
2018-08-25T04:49:28.247Z,80.89
2018-08-25T04:51:57.737Z,80.60
2018-08-25T04:54:26.835Z,80.33
2018-08-25T04:56:56.264Z,80.37
2018-08-25T04:59:26.487Z,80.58
2018-08-25T05:01:55.722Z,80.26
2018-08-25T05:04:25.084Z,80.00
2018-08-25T05:06:54.566Z,79.53
2018-08-25T05:09:26.952Z,78.41
2018-08-25T05:11:55.981Z,78.48
2018-08-25T05:14:25.465Z,78.57
2018-08-25T05:16:54.968Z,78.97
2018-08-25T05:19:23.884Z,77.90
2018-08-25T05:21:53.146Z,77.43
2018-08-25T05:24:22.960Z,77.44
2018-08-25T05:26:52.931Z,77.00
2018-08-25T05:29:22.168Z,76.35
2018-08-25T05:31:51.262Z,76.02
2018-08-25T05:34:20.438Z,75.40
2018-08-25T05:36:49.875Z,75.02
2018-08-25T05:39:19.004Z,74.65
2018-08-25T05:41:48.229Z,74.48
2018-08-25T05:44:17.498Z,74.98
2018-08-25T05:46:47.072Z,74.50
2018-08-25T05:49:16.755Z,74.21
2018-08-25T05:51:46.086Z,74.82
2018-08-25T05:54:16.038Z,74.48
2018-08-25T05:56:45.178Z,73.43
2018-08-25T05:59:14.796Z,73.16
2018-08-25T06:01:43.862Z,73.07
2018-08-25T06:04:12.915Z,73.34
2018-08-25T06:06:42.285Z,73.18
2018-08-25T06:09:12.651Z,72.75
2018-08-25T06:11:43.111Z,73.12
2018-08-25T06:14:12.425Z,72.15
2018-08-25T06:16:41.611Z,72.06
2018-08-25T06:19:10.752Z,71.29
2018-08-25T06:21:40.393Z,71.73
2018-08-25T06:24:10.325Z,71.04
2018-08-25T06:26:39.425Z,71.16
2018-08-25T06:29:08.915Z,70.69
2018-08-25T06:31:37.927Z,71.14
2018-08-25T06:34:07.129Z,70.46
2018-08-25T06:36:36.384Z,70.16
2018-08-25T06:39:08.379Z,70.49
2018-08-25T06:41:37.453Z,70.47
2018-08-25T06:44:07.020Z,70.27
2018-08-25T06:46:36.157Z,70.93
2018-08-25T06:49:05.337Z,70.73
2018-08-25T06:51:34.693Z,70.64
2018-08-25T06:54:03.908Z,70.63
2018-08-25T06:56:33.011Z,70.81
2018-08-25T06:59:02.370Z,70.72
2018-08-25T07:01:31.470Z,70.61
2018-08-25T07:04:01.483Z,70.35
2018-08-25T07:06:30.506Z,70.60
2018-08-25T07:08:59.819Z,70.43
2018-08-25T07:11:28.973Z,70.05
2018-08-25T07:13:58.464Z,69.92
2018-08-25T07:16:28.062Z,69.81
2018-08-25T07:18:57.436Z,70.09
2018-08-25T07:21:27.322Z,69.64
2018-08-25T07:23:56.670Z,68.70
2018-08-25T07:26:25.862Z,68.94
2018-08-25T07:28:55.055Z,69.37
2018-08-25T07:31:24.279Z,69.19
2018-08-25T07:33:53.400Z,68.17
2018-08-25T07:36:22.666Z,67.99
2018-08-25T07:38:52.327Z,67.35
2018-08-25T07:41:21.765Z,67.58
2018-08-25T07:43:51.273Z,67.09
2018-08-25T07:46:20.655Z,66.60
2018-08-25T07:48:50.087Z,65.91
2018-08-25T07:51:19.305Z,66.14
2018-08-25T07:53:48.377Z,65.93
2018-08-25T07:56:17.687Z,65.09
2018-08-25T07:58:46.833Z,65.10
2018-08-25T08:01:16.142Z,65.24
2018-08-25T08:03:45.185Z,65.12
2018-08-25T08:06:14.414Z,64.17
2018-08-25T08:08:43.666Z,64.13
2018-08-25T08:11:13.863Z,63.22
2018-08-25T08:13:43.160Z,61.94
2018-08-25T08:16:13.972Z,61.74
2018-08-25T08:18:43.324Z,61.04
2018-08-25T08:21:12.527Z,60.29
2018-08-25T08:23:41.577Z,60.53
2018-08-25T08:26:10.815Z,60.66
2018-08-25T08:28:40.091Z,60.07
2018-08-25T08:31:09.215Z,59.79
2018-08-25T08:33:38.229Z,60.00
2018-08-25T08:36:07.398Z,59.66
2018-08-25T08:38:37.867Z,58.68
2018-08-25T08:41:13.425Z,58.20
2018-08-25T08:43:42.759Z,58.36
2018-08-25T08:46:12.278Z,58.96
2018-08-25T08:48:41.403Z,58.89
2018-08-25T08:51:10.875Z,58.60
2018-08-25T08:53:40.220Z,58.70
2018-08-25T08:56:09.516Z,58.86
2018-08-25T08:58:38.569Z,58.79
2018-08-25T09:01:07.517Z,59.16
2018-08-25T09:03:37.743Z,60.02
2018-08-25T09:06:07.102Z,59.99
2018-08-25T09:08:36.521Z,59.79
2018-08-25T09:11:05.572Z,60.18
2018-08-25T09:13:35.085Z,59.83
2018-08-25T09:16:04.479Z,60.69
2018-08-25T09:18:33.471Z,60.15
2018-08-25T09:21:02.729Z,60.39
2018-08-25T09:23:32.561Z,60.41
2018-08-25T09:26:02.023Z,60.51
2018-08-25T09:28:31.347Z,60.48
2018-08-25T09:31:00.439Z,61.17
2018-08-25T09:33:29.912Z,61.30
2018-08-25T09:35:59.012Z,61.38
2018-08-25T09:38:29.027Z,61.63
2018-08-25T09:40:58.364Z,60.76
2018-08-25T09:43:27.743Z,60.63
2018-08-25T09:45:57.059Z,60.78
2018-08-25T09:48:26.239Z,60.66
2018-08-25T09:50:55.347Z,60.77
2018-08-25T09:53:24.746Z,61.60
2018-08-25T09:55:54.151Z,62.06
2018-08-25T09:58:24.603Z,61.60
2018-08-25T10:00:58.848Z,62.27
2018-08-25T10:03:28.206Z,62.47
2018-08-25T10:05:57.451Z,62.39
2018-08-25T10:08:27.206Z,62.25
2018-08-25T10:10:56.426Z,62.16
2018-08-25T10:13:25.747Z,62.30
2018-08-25T10:15:55.015Z,62.01
2018-08-25T10:18:24.424Z,62.75
2018-08-25T10:20:53.702Z,62.47
2018-08-25T10:23:23.185Z,62.61
2018-08-25T10:25:53.224Z,63.13
2018-08-25T10:28:22.322Z,63.04
2018-08-25T10:30:51.934Z,62.45
2018-08-25T10:33:21.079Z,63.48
2018-08-25T10:35:50.545Z,63.92
2018-08-25T10:38:19.795Z,63.97
2018-08-25T10:40:49.053Z,63.63
2018-08-25T10:43:18.155Z,64.18
2018-08-25T10:45:47.116Z,64.16
2018-08-25T10:48:16.571Z,65.40
2018-08-25T10:50:45.932Z,64.66
2018-08-25T10:53:15.022Z,65.52
2018-08-25T10:55:44.658Z,65.57
2018-08-25T10:58:14.010Z,65.59
2018-08-25T11:00:43.288Z,65.74
2018-08-25T11:03:13.533Z,66.11
2018-08-25T11:05:42.876Z,66.11
2018-08-25T11:08:12.198Z,66.41
2018-08-25T11:10:41.271Z,66.93
2018-08-25T11:13:10.678Z,67.13
2018-08-25T11:15:41.085Z,67.65
2018-08-25T11:18:10.322Z,67.86
2018-08-25T11:20:39.457Z,68.66
2018-08-25T11:23:08.790Z,68.39
2018-08-25T11:25:37.975Z,68.96
2018-08-25T11:28:07.154Z,69.15
2018-08-25T11:30:36.091Z,69.47
2018-08-25T11:33:05.563Z,69.57
2018-08-25T11:35:34.764Z,70.01
2018-08-25T11:38:04.135Z,69.68
2018-08-25T11:40:33.380Z,70.00
2018-08-25T11:43:02.397Z,70.39
2018-08-25T11:45:31.613Z,70.45
2018-08-25T11:48:00.574Z,70.69
2018-08-25T11:50:29.726Z,70.32
2018-08-25T11:52:58.811Z,69.99
2018-08-25T11:55:28.476Z,69.39
2018-08-25T11:57:57.474Z,69.22
2018-08-25T12:00:27.216Z,69.26
2018-08-25T12:02:56.523Z,69.33
2018-08-25T12:05:26.744Z,69.05
2018-08-25T12:07:55.933Z,68.61
2018-08-25T12:10:25.820Z,69.45
2018-08-25T12:12:54.914Z,69.29
2018-08-25T12:15:24.458Z,69.80
2018-08-25T12:17:54.032Z,69.43
2018-08-25T12:20:23.377Z,68.64
2018-08-25T12:22:52.639Z,68.29
2018-08-25T12:25:21.797Z,68.40
2018-08-25T12:27:50.923Z,68.51
2018-08-25T12:30:20.152Z,67.95
2018-08-25T12:32:49.334Z,67.75
2018-08-25T12:35:18.401Z,67.37
2018-08-25T12:37:47.937Z,66.63
2018-08-25T12:40:18.142Z,66.46
2018-08-25T12:42:47.235Z,66.19
2018-08-25T12:45:16.232Z,65.86
2018-08-25T12:47:45.324Z,65.80
2018-08-25T12:50:14.428Z,65.73
2018-08-25T12:52:43.846Z,65.41
2018-08-25T12:55:13.108Z,64.74
2018-08-25T12:57:42.751Z,65.07
2018-08-25T13:00:11.836Z,64.68
2018-08-25T13:02:41.013Z,64.42
2018-08-25T13:05:10.257Z,63.07
2018-08-25T13:07:39.377Z,62.98
2018-08-25T13:10:08.517Z,62.54
2018-08-25T13:12:37.727Z,62.09
2018-08-25T13:15:08.141Z,62.25
2018-08-25T13:17:37.140Z,61.40
2018-08-25T13:20:07.167Z,62.55
2018-08-25T13:22:36.556Z,62.70
2018-08-25T13:25:06.011Z,62.75
2018-08-25T13:27:35.487Z,62.76
2018-08-25T13:30:05.150Z,62.30
2018-08-25T13:32:34.292Z,62.37
2018-08-25T13:35:03.349Z,61.83
2018-08-25T13:37:32.392Z,61.79
2018-08-25T13:40:01.403Z,62.01
2018-08-25T13:42:30.770Z,61.73
2018-08-25T13:44:59.852Z,62.74
2018-08-25T13:47:28.756Z,62.22
2018-08-25T13:49:58.272Z,63.07
2018-08-25T13:52:27.363Z,62.83
2018-08-25T13:54:57.132Z,62.60
2018-08-25T13:57:26.635Z,63.48
2018-08-25T13:59:55.767Z,63.34
2018-08-25T14:02:25.072Z,63.76
2018-08-25T14:04:54.328Z,64.02
2018-08-25T14:07:23.536Z,64.84
2018-08-25T14:09:53.641Z,64.93
2018-08-25T14:12:22.830Z,64.99
2018-08-25T14:14:52.084Z,64.81
2018-08-25T14:17:21.513Z,65.27
2018-08-25T14:19:50.405Z,65.49
2018-08-25T14:22:19.592Z,66.14
2018-08-25T14:24:48.737Z,65.81
2018-08-25T14:27:17.915Z,66.47
2018-08-25T14:29:47.003Z,66.12
2018-08-25T14:32:16.136Z,66.65
2018-08-25T14:34:45.175Z,66.89
2018-08-25T14:37:14.206Z,66.06
2018-08-25T14:39:43.748Z,66.18
2018-08-25T14:42:13.239Z,66.01
2018-08-25T14:44:42.259Z,65.90
2018-08-25T14:47:11.617Z,66.81
2018-08-25T14:49:40.935Z,66.37
2018-08-25T14:52:10.211Z,67.21
2018-08-25T14:54:39.203Z,66.97
2018-08-25T14:57:08.333Z,66.62
2018-08-25T14:59:37.676Z,67.02
2018-08-25T15:02:07.233Z,66.37
2018-08-25T15:04:36.926Z,66.55
2018-08-25T15:07:06.270Z,65.82
2018-08-25T15:09:35.595Z,66.40
2018-08-25T15:12:04.759Z,65.43
2018-08-25T15:14:34.062Z,65.13
2018-08-25T15:17:03.731Z,64.10
2018-08-25T15:19:33.076Z,64.56
2018-08-25T15:22:05.038Z,64.65
2018-08-25T15:24:34.268Z,64.09
2018-08-25T15:27:03.376Z,64.67
2018-08-25T15:29:32.781Z,64.08
2018-08-25T15:32:01.715Z,64.17
2018-08-25T15:34:30.807Z,63.99
2018-08-25T15:36:59.957Z,63.29
2018-08-25T15:39:29.385Z,62.83
2018-08-25T15:41:58.545Z,62.17
2018-08-25T15:44:27.845Z,62.65
2018-08-25T15:46:57.463Z,62.53
2018-08-25T15:49:26.603Z,62.89
2018-08-25T15:51:56.269Z,62.07
2018-08-25T15:54:25.557Z,62.36
2018-08-25T15:56:55.285Z,63.12
2018-08-25T15:59:24.358Z,63.08
2018-08-25T16:01:53.498Z,63.32
2018-08-25T16:04:22.804Z,63.23
2018-08-25T16:06:52.048Z,63.00
2018-08-25T16:09:21.189Z,63.90
2018-08-25T16:11:50.301Z,63.56
2018-08-25T16:14:19.898Z,63.50
2018-08-25T16:16:48.943Z,63.81
2018-08-25T16:19:18.895Z,63.61
2018-08-25T16:21:48.350Z,63.72
2018-08-25T16:24:17.629Z,63.98
2018-08-25T16:26:46.946Z,63.63
2018-08-25T16:29:16.099Z,63.52
2018-08-25T16:31:45.035Z,64.35
2018-08-25T16:34:14.175Z,64.03
2018-08-25T16:36:43.370Z,64.80
2018-08-25T16:39:13.250Z,64.44
2018-08-25T16:41:42.555Z,64.78
2018-08-25T16:44:12.498Z,63.90
2018-08-25T16:46:41.610Z,64.13
2018-08-25T16:49:10.726Z,63.48
2018-08-25T16:51:39.850Z,63.62
2018-08-25T16:54:15.593Z,63.81
2018-08-25T16:56:44.632Z,64.01
2018-08-25T16:59:13.774Z,64.09
2018-08-25T17:01:42.853Z,64.11
2018-08-25T17:04:12.065Z,64.31
2018-08-25T17:06:41.260Z,64.26
2018-08-25T17:09:11.318Z,63.86
2018-08-25T17:11:40.547Z,63.39
2018-08-25T17:14:10.051Z,62.94
2018-08-25T17:16:39.453Z,62.96
2018-08-25T17:19:08.448Z,63.09
2018-08-25T17:21:37.607Z,62.54
2018-08-25T17:24:06.693Z,61.82
2018-08-25T17:26:35.961Z,61.04
2018-08-25T17:29:04.994Z,60.65
2018-08-25T17:31:33.896Z,60.24
2018-08-25T17:34:03.666Z,59.83
2018-08-25T17:36:32.756Z,59.64
2018-08-25T17:39:01.852Z,59.89
2018-08-25T17:41:30.839Z,59.60
2018-08-25T17:43:59.864Z,60.00
2018-08-25T17:46:28.774Z,60.16
2018-08-25T17:48:57.720Z,60.24
2018-08-25T17:51:27.256Z,60.48
2018-08-25T17:53:56.399Z,60.75
2018-08-25T17:56:26.268Z,60.82
2018-08-25T17:58:55.214Z,60.46
2018-08-25T18:01:24.241Z,60.20
2018-08-25T18:03:53.479Z,60.35
2018-08-25T18:06:22.844Z,60.60
2018-08-25T18:08:52.162Z,60.48
2018-08-25T18:11:21.356Z,60.39
2018-08-25T18:13:50.516Z,60.63
2018-08-25T18:16:19.819Z,60.67
2018-08-25T18:18:48.936Z,60.96
2018-08-25T18:21:18.011Z,60.86
2018-08-25T18:23:47.348Z,61.05
2018-08-25T18:26:17.282Z,60.78
2018-08-25T18:28:46.878Z,60.99
2018-08-25T18:31:16.725Z,61.37
2018-08-25T18:33:45.877Z,61.54
2018-08-25T18:36:15.122Z,61.64
2018-08-25T18:38:44.625Z,61.71
2018-08-25T18:41:14.169Z,62.19
2018-08-25T18:43:43.287Z,62.46
2018-08-25T18:46:12.597Z,62.53
2018-08-25T18:48:42.488Z,62.81
2018-08-25T18:51:11.799Z,63.37
2018-08-25T18:53:41.154Z,63.48
2018-08-25T18:56:10.971Z,63.73
2018-08-25T18:58:40.289Z,64.27
2018-08-25T19:01:10.113Z,64.48
2018-08-25T19:03:39.609Z,64.50
2018-08-25T19:06:09.110Z,64.48
2018-08-25T19:08:38.166Z,64.44
2018-08-25T19:11:07.631Z,64.33
2018-08-25T19:13:36.831Z,64.73
2018-08-25T19:16:06.113Z,64.72
2018-08-25T19:18:35.260Z,64.72
2018-08-25T19:21:04.650Z,64.28
2018-08-25T19:23:34.158Z,64.65
2018-08-25T19:26:03.533Z,64.97
2018-08-25T19:28:32.964Z,64.96
2018-08-25T19:31:02.557Z,65.02
2018-08-25T19:33:32.000Z,65.12
2018-08-25T19:36:01.647Z,65.38
2018-08-25T19:38:31.395Z,65.10
2018-08-25T19:41:00.999Z,65.22
2018-08-25T19:43:30.618Z,65.56
2018-08-25T19:46:00.111Z,65.41
2018-08-25T19:48:29.744Z,64.95
2018-08-25T19:50:59.446Z,64.89
2018-08-25T19:53:29.197Z,65.23
2018-08-25T19:55:59.081Z,64.88
2018-08-25T19:58:28.671Z,64.69
2018-08-25T20:00:57.836Z,64.43
2018-08-25T20:03:27.500Z,64.44
2018-08-25T20:05:56.912Z,64.53
2018-08-25T20:08:26.339Z,64.79
2018-08-25T20:10:55.749Z,64.98
2018-08-25T20:13:25.078Z,65.48
2018-08-25T20:15:54.259Z,65.51
2018-08-25T20:18:23.998Z,65.80
2018-08-25T20:20:53.342Z,65.90
2018-08-25T20:23:22.795Z,66.84
2018-08-25T20:25:51.969Z,66.84
2018-08-25T20:28:21.258Z,66.92
2018-08-25T20:30:50.685Z,67.05
2018-08-25T20:33:19.794Z,67.04
2018-08-25T20:35:48.928Z,67.24
2018-08-25T20:38:18.319Z,67.81
2018-08-25T20:40:47.664Z,67.56
2018-08-25T20:43:17.069Z,67.23
2018-08-25T20:45:46.515Z,67.71
2018-08-25T20:48:15.964Z,68.02
2018-08-25T20:50:45.073Z,68.41
2018-08-25T20:53:14.181Z,69.07
2018-08-25T20:55:44.013Z,69.63
2018-08-25T20:58:13.210Z,69.61
2018-08-25T21:00:42.392Z,69.99
2018-08-25T21:03:11.663Z,70.56
2018-08-25T21:05:40.693Z,70.84
2018-08-25T21:08:09.959Z,71.55
2018-08-25T21:10:39.123Z,72.48
2018-08-25T21:13:08.443Z,72.63
2018-08-25T21:15:37.955Z,72.62
2018-08-25T21:18:07.095Z,72.85
2018-08-25T21:20:39.550Z,73.29
2018-08-25T21:23:08.768Z,73.64
2018-08-25T21:25:37.927Z,73.61
2018-08-25T21:28:07.515Z,74.20
2018-08-25T21:30:37.285Z,74.54
2018-08-25T21:33:06.615Z,74.81
2018-08-25T21:35:36.125Z,74.86
2018-08-25T21:38:05.361Z,74.52
2018-08-25T21:40:34.651Z,74.52
2018-08-25T21:43:04.264Z,74.78
2018-08-25T21:45:33.514Z,74.98
2018-08-25T21:48:02.543Z,74.57
2018-08-25T21:50:31.475Z,74.71
2018-08-25T21:53:00.449Z,75.61
2018-08-25T21:55:29.694Z,75.02
2018-08-25T21:57:59.292Z,75.56
2018-08-25T22:00:28.837Z,74.79
2018-08-25T22:02:58.088Z,75.11
2018-08-25T22:05:27.174Z,75.22
2018-08-25T22:07:56.947Z,75.16
2018-08-25T22:10:26.044Z,75.41
2018-08-25T22:12:55.184Z,75.40
2018-08-25T22:15:24.424Z,75.03
2018-08-25T22:17:53.899Z,75.58
2018-08-25T22:20:23.406Z,75.58
2018-08-25T22:22:52.590Z,75.62
2018-08-25T22:25:22.119Z,76.09
2018-08-25T22:27:51.211Z,75.87
2018-08-25T22:30:20.377Z,76.28
2018-08-25T22:32:49.426Z,76.95
2018-08-25T22:35:18.643Z,76.65
2018-08-25T22:37:47.766Z,77.51
2018-08-25T22:40:16.837Z,77.32
2018-08-25T22:42:46.287Z,77.03
2018-08-25T22:45:15.883Z,77.15
2018-08-25T22:47:45.029Z,77.55
2018-08-25T22:50:14.371Z,77.98
2018-08-25T22:52:48.523Z,77.50
2018-08-25T22:55:17.485Z,78.15
2018-08-25T22:57:46.918Z,78.22
2018-08-25T23:00:16.160Z,78.51
2018-08-25T23:02:45.205Z,78.41
2018-08-25T23:05:14.232Z,78.86
2018-08-25T23:07:43.505Z,78.67
2018-08-25T23:10:12.624Z,78.55
2018-08-25T23:12:41.789Z,78.80
2018-08-25T23:15:11.052Z,78.06
2018-08-25T23:17:40.172Z,78.10
2018-08-25T23:20:09.907Z,77.89
2018-08-25T23:22:39.619Z,78.60
2018-08-25T23:25:08.604Z,78.78
2018-08-25T23:27:37.544Z,78.85
2018-08-25T23:30:06.795Z,78.67
2018-08-25T23:32:36.220Z,78.84
2018-08-25T23:35:05.383Z,78.44
2018-08-25T23:37:34.593Z,78.43
2018-08-25T23:40:03.998Z,78.89
2018-08-25T23:42:32.932Z,78.61
2018-08-25T23:45:02.082Z,78.69
2018-08-25T23:47:31.497Z,79.80
2018-08-25T23:50:01.460Z,79.36
2018-08-25T23:52:34.904Z,79.95
2018-08-25T23:55:05.389Z,79.63
2018-08-25T23:57:34.696Z,80.32
